Terminal Aerodrome Forecast
Issued by NWS Detroit/Pontiac, MI

Home | Current Version | Previous Version | Text Only | Print | Product List | Glossary On
Versions: 1 2 3 4 5 6 7 8 9 10 11 12 13 14 15 16 17 18 19 20 21 22 23 24 25
899
FTUS43 KDTX 201125
TAFDTW
TAF
KDTW 201125Z 2012/2118 VRB03KT P6SM SKC
     FM201500 21007KT P6SM SKC
     FM202100 16005KT P6SM SCT060
     FM210900 19003KT 5SM BR SCT200
     FM211400 22008KT P6SM BKN200=

USA.gov is the U.S. government's official web portal to all federal, state and local government web resources and services.